< < Back
Terminal Aerodrome Forecast


Current Version              Previous Versions:   1  2  3  4  5  6  7  8  9  

Terminal Aerodrome Forecast

758
FTUS42 KTAE 310500
TAFDHN
TAF
KDHN 310536Z 3106/0106 00000KT P6SM BKN250
     FM311800 35004KT P6SM SCT050 SCT250
     FM010300 36003KT P6SM BKN250=

Latest METAR

821
SAUS70 KWBC 010656
MTRDHN
METAR KDHN 010653Z AUTO 00000KT 10SM CLR 21/19 A3001 RMK AO2 SLP156
T02110189 $


USA.gov is the U.S. government's official web portal to all federal, state and local government web resources and services.